createdAt,value
2017-12-27T00:00:08.373Z,99096.38
2017-12-27T00:02:40.538Z,99089.56
2017-12-27T00:05:12.605Z,99090.95
2017-12-27T00:07:44.474Z,99084.98
2017-12-27T00:10:16.522Z,99077.94
2017-12-27T00:12:48.513Z,99080.44
2017-12-27T00:15:20.423Z,99077.95
2017-12-27T00:17:52.482Z,99077.10
2017-12-27T00:20:24.274Z,99071.88
2017-12-27T00:22:56.207Z,99072.02
2017-12-27T00:25:28.212Z,99062.44
2017-12-27T00:28:00.070Z,99052.73
2017-12-27T00:30:31.962Z,99047.57
2017-12-27T00:32:57.778Z,99053.31
2017-12-27T00:35:23.575Z,99042.30
2017-12-27T00:37:49.378Z,99043.23
2017-12-27T00:40:15.188Z,99036.63
2017-12-27T00:42:40.978Z,99041.77
2017-12-27T00:45:06.754Z,99036.00
2017-12-27T00:47:32.526Z,99028.86
2017-12-27T00:49:58.345Z,99024.58
2017-12-27T00:52:24.125Z,99023.95
2017-12-27T00:54:49.912Z,99025.34
2017-12-27T00:57:15.726Z,99032.12
2017-12-27T00:59:41.506Z,99025.63
2017-12-27T01:02:07.298Z,99026.55
2017-12-27T01:04:33.105Z,99027.83
2017-12-27T01:06:58.877Z,99022.09
2017-12-27T01:09:24.639Z,99022.52
2017-12-27T01:11:50.726Z,99022.03
2017-12-27T01:14:16.513Z,99012.11
2017-12-27T01:16:42.293Z,99020.16
2017-12-27T01:19:08.092Z,99016.88
2017-12-27T01:21:33.872Z,99015.56
2017-12-27T01:23:59.667Z,99012.14
2017-12-27T01:26:25.439Z,99013.50
2017-12-27T01:28:51.479Z,99007.06
2017-12-27T01:31:17.598Z,99005.31
2017-12-27T01:33:43.376Z,99004.83
2017-12-27T01:36:09.166Z,98999.55
2017-12-27T01:38:34.962Z,98995.70
2017-12-27T01:41:00.749Z,98988.18
2017-12-27T01:43:26.521Z,98985.30
2017-12-27T01:45:52.312Z,98983.45
2017-12-27T01:48:18.125Z,98979.81
2017-12-27T01:50:43.914Z,98972.28
2017-12-27T01:53:09.693Z,98967.92
2017-12-27T01:55:35.474Z,98960.14
2017-12-27T01:58:01.245Z,98949.58
2017-12-27T02:00:27.056Z,98947.44
2017-12-27T02:02:52.834Z,98937.59
2017-12-27T02:05:18.639Z,98937.38
2017-12-27T02:07:44.462Z,98927.11
2017-12-27T02:10:10.258Z,98922.98
2017-12-27T02:12:36.050Z,98919.13
2017-12-27T02:15:01.879Z,98916.09
2017-12-27T02:17:27.667Z,98905.34
2017-12-27T02:19:53.456Z,98902.77
2017-12-27T02:22:19.232Z,98903.94
2017-12-27T02:24:45.035Z,98892.55
2017-12-27T02:27:10.839Z,98884.17
2017-12-27T02:29:36.926Z,98876.27
2017-12-27T02:32:02.725Z,98877.84
2017-12-27T02:34:28.510Z,98868.25
2017-12-27T02:36:54.287Z,98865.11
2017-12-27T02:39:32.575Z,98865.68
2017-12-27T02:41:58.374Z,98857.38
2017-12-27T02:44:24.163Z,98848.77
2017-12-27T02:46:49.946Z,98846.61
2017-12-27T02:49:15.746Z,98830.16
2017-12-27T02:51:41.543Z,98833.53
2017-12-27T02:54:07.337Z,98831.36
2017-12-27T02:56:33.128Z,98822.55
2017-12-27T02:58:58.907Z,98820.44
2017-12-27T03:01:24.712Z,98805.05
2017-12-27T03:03:50.519Z,98799.66
2017-12-27T03:06:16.308Z,98789.53
2017-12-27T03:08:42.107Z,98786.73
2017-12-27T03:11:07.875Z,98786.11
2017-12-27T03:13:33.649Z,98783.54
2017-12-27T03:15:59.455Z,98775.31
2017-12-27T03:18:25.238Z,98774.20
2017-12-27T03:20:51.024Z,98774.22
2017-12-27T03:23:16.841Z,98765.98
2017-12-27T03:25:42.625Z,98763.34
2017-12-27T03:28:08.406Z,98767.66
2017-12-27T03:30:34.585Z,98757.44
2017-12-27T03:33:07.477Z,98762.17
2017-12-27T03:35:33.295Z,98763.22
2017-12-27T03:37:59.115Z,98754.53
2017-12-27T03:40:24.906Z,98743.98
2017-12-27T03:42:50.685Z,98732.73
2017-12-27T03:45:16.491Z,98726.02
2017-12-27T03:47:42.283Z,98726.72
2017-12-27T03:50:08.151Z,98724.05
2017-12-27T03:52:33.955Z,98728.28
2017-12-27T03:54:59.731Z,98727.28
2017-12-27T03:57:25.518Z,98730.51
2017-12-27T03:59:51.306Z,98731.11
2017-12-27T04:02:17.098Z,98727.75
2017-12-27T04:04:42.885Z,98718.23
2017-12-27T04:07:08.664Z,98713.53
2017-12-27T04:09:34.463Z,98705.56
2017-12-27T04:12:00.426Z,98701.37
2017-12-27T04:14:26.218Z,98688.48
2017-12-27T04:16:52.011Z,98683.64
2017-12-27T04:19:17.840Z,98669.55
2017-12-27T04:21:43.622Z,98662.35
2017-12-27T04:24:09.397Z,98658.98
2017-12-27T04:26:35.210Z,98662.50
2017-12-27T04:29:00.987Z,98669.13
2017-12-27T04:31:27.078Z,98647.94
2017-12-27T04:33:52.858Z,98652.94
2017-12-27T04:36:18.638Z,98644.67
2017-12-27T04:38:44.650Z,98638.61
2017-12-27T04:41:10.435Z,98625.81
2017-12-27T04:43:36.217Z,98617.43
2017-12-27T04:46:02.011Z,98614.86
2017-12-27T04:48:27.792Z,98607.93
2017-12-27T04:50:53.574Z,98618.28
2017-12-27T04:53:19.361Z,98629.33
2017-12-27T04:55:45.138Z,98618.66
2017-12-27T04:58:10.916Z,98618.70
2017-12-27T05:00:36.740Z,98618.99
2017-12-27T05:03:02.564Z,98599.45
2017-12-27T05:05:28.376Z,98627.66
2017-12-27T05:07:54.167Z,98622.77
2017-12-27T05:10:22.962Z,98622.50
2017-12-27T05:12:48.757Z,98620.31
2017-12-27T05:15:14.570Z,98629.03
2017-12-27T05:17:40.340Z,98619.76
2017-12-27T05:20:06.135Z,98616.42
2017-12-27T05:22:31.922Z,98616.84
2017-12-27T05:24:57.711Z,98614.47
2017-12-27T05:27:23.485Z,98605.17
2017-12-27T05:29:49.298Z,98592.92
2017-12-27T05:32:15.158Z,98599.39
2017-12-27T05:34:40.964Z,98586.81
2017-12-27T05:37:06.747Z,98583.19
2017-12-27T05:39:32.714Z,98581.63
2017-12-27T05:41:58.508Z,98581.59
2017-12-27T05:44:24.293Z,98579.17
2017-12-27T05:46:50.071Z,98568.84
2017-12-27T05:49:15.878Z,98563.28
2017-12-27T05:51:41.847Z,98560.37
2017-12-27T05:54:07.658Z,98555.63
2017-12-27T05:56:33.438Z,98555.47
2017-12-27T05:58:59.231Z,98551.80
2017-12-27T06:01:25.040Z,98545.45
2017-12-27T06:03:50.848Z,98545.07
2017-12-27T06:06:16.626Z,98540.94
2017-12-27T06:08:42.408Z,98541.23
2017-12-27T06:11:08.400Z,98532.70
2017-12-27T06:13:34.192Z,98523.34
2017-12-27T06:15:59.971Z,98519.95
2017-12-27T06:18:25.768Z,98513.83
2017-12-27T06:20:51.573Z,98519.70
2017-12-27T06:23:17.499Z,98518.09
2017-12-27T06:25:43.277Z,98514.17
2017-12-27T06:28:09.064Z,98507.30
2017-12-27T06:30:34.874Z,98505.54
2017-12-27T06:33:00.655Z,98495.62
2017-12-27T06:35:26.434Z,98499.27
2017-12-27T06:37:52.262Z,98494.27
2017-12-27T06:40:18.050Z,98488.14
2017-12-27T06:42:43.823Z,98482.66
2017-12-27T06:45:09.641Z,98481.71
2017-12-27T06:47:35.432Z,98478.45
2017-12-27T06:50:01.220Z,98471.44
2017-12-27T06:52:27.214Z,98470.30
2017-12-27T06:54:53.021Z,98471.64
2017-12-27T06:57:18.803Z,98467.17
2017-12-27T06:59:45.286Z,98456.97
2017-12-27T07:02:11.078Z,98455.92
2017-12-27T07:04:36.866Z,98454.31
2017-12-27T07:07:02.646Z,98454.42
2017-12-27T07:09:28.435Z,98452.73
2017-12-27T07:11:54.583Z,98446.31
2017-12-27T07:14:20.363Z,98445.70
2017-12-27T07:16:46.146Z,98440.09
2017-12-27T07:19:11.943Z,98437.47
2017-12-27T07:21:37.730Z,98439.92
2017-12-27T07:24:03.527Z,98432.16
2017-12-27T07:26:29.693Z,98430.95
2017-12-27T07:28:55.474Z,98434.48
2017-12-27T07:31:21.278Z,98426.70
2017-12-27T07:33:47.079Z,98431.01
2017-12-27T07:36:12.870Z,98419.72
2017-12-27T07:38:38.700Z,98414.02
2017-12-27T07:41:05.525Z,98409.59
2017-12-27T07:43:31.328Z,98409.71
2017-12-27T07:45:57.109Z,98399.59
2017-12-27T07:48:22.935Z,98390.67
2017-12-27T07:50:48.762Z,98392.30
2017-12-27T07:53:14.954Z,98386.63
2017-12-27T07:55:40.793Z,98385.44
2017-12-27T07:58:06.601Z,98370.72
2017-12-27T08:00:32.389Z,98363.39
2017-12-27T08:02:58.394Z,98366.63
2017-12-27T08:05:25.111Z,98358.76
2017-12-27T08:07:50.914Z,98355.61
2017-12-27T08:10:16.763Z,98351.78
2017-12-27T08:12:42.563Z,98352.09
2017-12-27T08:15:15.466Z,98342.88
2017-12-27T08:17:41.259Z,98337.69
2017-12-27T08:20:07.040Z,98337.20
2017-12-27T08:22:33.179Z,98332.17
2017-12-27T08:24:58.983Z,98334.66
2017-12-27T08:27:24.778Z,98326.72
2017-12-27T08:29:50.579Z,98321.80
2017-12-27T08:32:16.374Z,98317.03
2017-12-27T08:34:42.167Z,98312.22
2017-12-27T08:37:08.394Z,98318.22
2017-12-27T08:39:34.295Z,98313.09
2017-12-27T08:42:00.099Z,98298.32
2017-12-27T08:44:25.900Z,98302.82
2017-12-27T08:46:51.691Z,98293.62
2017-12-27T08:49:17.511Z,98287.26
2017-12-27T08:51:43.327Z,98303.02
2017-12-27T08:54:09.135Z,98288.41
2017-12-27T08:56:34.910Z,98282.59
2017-12-27T08:59:00.835Z,98286.47
2017-12-27T09:01:26.614Z,98275.08
2017-12-27T09:03:52.399Z,98282.09
2017-12-27T09:06:18.390Z,98278.98
2017-12-27T09:08:44.187Z,98278.78
2017-12-27T09:11:09.975Z,98270.48
2017-12-27T09:13:36.135Z,98275.59
2017-12-27T09:16:01.942Z,98284.85
2017-12-27T09:18:27.728Z,98276.41
2017-12-27T09:20:53.542Z,98277.00
2017-12-27T09:23:19.309Z,98276.24
2017-12-27T09:25:45.106Z,98281.41
2017-12-27T09:28:11.078Z,98272.03
2017-12-27T09:30:37.077Z,98277.42
2017-12-27T09:33:02.869Z,98278.55
2017-12-27T09:35:28.661Z,98283.16
2017-12-27T09:37:54.474Z,98283.11
2017-12-27T09:40:20.498Z,98286.55
2017-12-27T09:42:46.279Z,98285.52
2017-12-27T09:47:37.918Z,98278.97
2017-12-27T09:50:03.711Z,98281.47
2017-12-27T09:52:29.645Z,98279.59
2017-12-27T09:54:55.427Z,98281.23
2017-12-27T09:57:21.530Z,98275.81
2017-12-27T09:59:47.331Z,98268.42
2017-12-27T10:02:13.295Z,98255.33
2017-12-27T10:04:39.069Z,98256.22
2017-12-27T10:07:04.887Z,98247.76
2017-12-27T10:09:30.800Z,98248.22
2017-12-27T10:11:56.566Z,98250.78
2017-12-27T10:14:22.530Z,98242.97
2017-12-27T10:16:48.343Z,98246.45
2017-12-27T10:19:14.118Z,98244.03
2017-12-27T10:21:39.916Z,98239.52
2017-12-27T10:24:05.729Z,98247.00
2017-12-27T10:26:31.629Z,98220.86
2017-12-27T10:28:57.427Z,98216.50
2017-12-27T10:31:23.650Z,98219.59
2017-12-27T10:33:49.408Z,98210.02
2017-12-27T10:36:15.227Z,98202.69
2017-12-27T10:38:41.019Z,98205.02
2017-12-27T10:41:06.814Z,98200.34
2017-12-27T10:43:32.599Z,98200.23
2017-12-27T10:45:58.518Z,98196.41
2017-12-27T10:48:24.313Z,98196.21
2017-12-27T10:50:50.103Z,98197.14
2017-12-27T10:53:15.937Z,98201.85
2017-12-27T10:55:41.740Z,98188.35
2017-12-27T10:58:07.527Z,98175.62
2017-12-27T11:00:33.351Z,98180.13
2017-12-27T11:02:59.122Z,98163.82
2017-12-27T11:05:25.390Z,98165.47
2017-12-27T11:07:52.342Z,98159.46
2017-12-27T11:10:18.125Z,98151.23
2017-12-27T11:12:43.918Z,98148.23
2017-12-27T11:15:09.847Z,98149.09
2017-12-27T11:17:35.652Z,98146.48
2017-12-27T11:20:01.458Z,98144.80
2017-12-27T11:22:27.274Z,98140.77
2017-12-27T11:24:53.064Z,98131.00
2017-12-27T11:27:18.847Z,98137.68
2017-12-27T11:29:44.703Z,98125.61
2017-12-27T11:32:10.486Z,98123.53
2017-12-27T11:34:36.305Z,98106.67
2017-12-27T11:37:02.110Z,98109.95
2017-12-27T11:39:27.911Z,98104.53
2017-12-27T11:41:53.760Z,98113.46
2017-12-27T11:44:19.582Z,98116.34
2017-12-27T11:46:45.353Z,98113.58
2017-12-27T11:49:11.251Z,98102.73
2017-12-27T11:51:37.027Z,98102.39
2017-12-27T11:54:02.838Z,98092.20
2017-12-27T11:56:28.635Z,98083.66
2017-12-27T11:58:54.414Z,98087.61
2017-12-27T12:01:20.477Z,98081.10
2017-12-27T12:03:46.258Z,98089.05
2017-12-27T12:06:12.057Z,98085.89
2017-12-27T12:08:37.850Z,98085.03
2017-12-27T12:11:10.466Z,98077.51
2017-12-27T12:13:36.295Z,98081.77
2017-12-27T12:16:02.092Z,98074.81
2017-12-27T12:18:27.885Z,98062.23
2017-12-27T12:20:53.706Z,98062.35
2017-12-27T12:23:19.479Z,98072.20
2017-12-27T12:25:45.251Z,98070.69
2017-12-27T12:28:11.948Z,98064.06
2017-12-27T12:30:37.727Z,98053.30
2017-12-27T12:33:03.688Z,98048.88
2017-12-27T12:35:29.527Z,98056.17
2017-12-27T12:37:55.311Z,98046.93
2017-12-27T12:40:21.115Z,98045.22
2017-12-27T12:42:46.895Z,98045.13
2017-12-27T12:45:12.691Z,98043.84
2017-12-27T12:47:38.503Z,98048.16
2017-12-27T12:50:04.279Z,98042.33
2017-12-27T12:52:30.063Z,98048.08
2017-12-27T12:54:55.856Z,98046.81
2017-12-27T12:57:21.644Z,98036.65
2017-12-27T12:59:47.438Z,98044.18
2017-12-27T13:02:13.227Z,98042.87
2017-12-27T13:04:39.002Z,98036.24
2017-12-27T13:07:04.795Z,98030.97
2017-12-27T13:09:30.626Z,98023.58
2017-12-27T13:11:56.454Z,98022.11
2017-12-27T13:14:22.256Z,98020.59
2017-12-27T13:16:48.075Z,98017.53
2017-12-27T13:19:14.235Z,98017.13
2017-12-27T13:21:40.038Z,98011.33
2017-12-27T13:24:05.862Z,98009.17
2017-12-27T13:26:31.679Z,98003.06
2017-12-27T13:28:57.478Z,97995.77
2017-12-27T13:31:23.285Z,97989.19
2017-12-27T13:33:49.076Z,97992.33
2017-12-27T13:36:15.743Z,97981.42
2017-12-27T13:38:41.856Z,97976.52
2017-12-27T13:41:07.781Z,97981.82
2017-12-27T13:43:33.590Z,97978.20
2017-12-27T13:45:59.380Z,97972.38
2017-12-27T13:48:25.171Z,97973.34
2017-12-27T13:50:50.988Z,97975.05
2017-12-27T13:53:17.289Z,97971.38
2017-12-27T13:55:43.078Z,97969.92
2017-12-27T13:58:09.225Z,97970.13
2017-12-27T14:00:35.014Z,97957.76
2017-12-27T14:03:00.994Z,97957.49
2017-12-27T14:05:27.031Z,97961.48
2017-12-27T14:07:52.819Z,97962.26
2017-12-27T14:10:18.598Z,97967.30
2017-12-27T14:12:44.384Z,97958.34
2017-12-27T14:15:10.167Z,97961.27
2017-12-27T14:17:36.400Z,97964.09
2017-12-27T14:20:02.215Z,97966.40
2017-12-27T14:22:28.174Z,97962.38
2017-12-27T14:24:53.979Z,97954.08
2017-12-27T14:27:19.795Z,97962.32
2017-12-27T14:29:45.562Z,97957.72
2017-12-27T14:32:11.548Z,97963.78
2017-12-27T14:34:37.331Z,97967.25
2017-12-27T14:37:03.122Z,97963.29
2017-12-27T14:42:01.787Z,97960.72
2017-12-27T14:44:27.593Z,97958.07
2017-12-27T14:46:53.391Z,97956.73
2017-12-27T14:49:19.183Z,97964.11
2017-12-27T14:51:44.976Z,97962.98
2017-12-27T14:54:10.766Z,97950.47
2017-12-27T14:56:36.571Z,97951.64
2017-12-27T14:59:02.351Z,97947.47
2017-12-27T15:01:28.158Z,97945.84
2017-12-27T15:03:54.164Z,97951.44
2017-12-27T15:06:19.968Z,97945.56
2017-12-27T15:08:45.770Z,97939.47
2017-12-27T15:11:11.556Z,97954.41
2017-12-27T15:13:37.355Z,97946.91
2017-12-27T15:16:03.130Z,97943.33
2017-12-27T15:18:28.931Z,97941.45
2017-12-27T15:23:27.466Z,97942.41
2017-12-27T15:25:53.263Z,97936.20
2017-12-27T15:28:19.046Z,97940.66
2017-12-27T15:30:44.851Z,97935.17
2017-12-27T15:33:10.639Z,97942.21
2017-12-27T15:35:36.414Z,97939.77
2017-12-27T15:38:02.215Z,97941.23
2017-12-27T15:40:34.947Z,97944.44
2017-12-27T15:43:00.766Z,97945.34
2017-12-27T15:45:26.551Z,97947.98
2017-12-27T15:47:52.700Z,97948.56
2017-12-27T15:50:18.487Z,97946.77
2017-12-27T15:52:44.255Z,97948.97
2017-12-27T15:55:11.110Z,97941.38
2017-12-27T15:57:36.910Z,97940.33
2017-12-27T16:00:02.723Z,97942.25
2017-12-27T16:02:35.678Z,97936.30
2017-12-27T16:05:01.521Z,97934.39
2017-12-27T16:07:27.355Z,97929.16
2017-12-27T16:09:53.147Z,97934.24
2017-12-27T16:12:18.974Z,97931.70
2017-12-27T16:14:44.758Z,97926.61
2017-12-27T16:17:10.544Z,97925.34
2017-12-27T16:19:36.362Z,97930.34
2017-12-27T16:22:02.162Z,97931.84
2017-12-27T16:24:27.934Z,97933.42
2017-12-27T16:26:53.723Z,97933.91
2017-12-27T16:29:19.525Z,97935.95
2017-12-27T16:31:45.495Z,97933.89
2017-12-27T16:34:11.278Z,97937.61
2017-12-27T16:36:37.071Z,97937.56
2017-12-27T16:39:02.947Z,97942.39
2017-12-27T16:41:28.738Z,97941.66
2017-12-27T16:43:54.529Z,97946.46
2017-12-27T16:46:20.636Z,97941.52
2017-12-27T16:48:46.434Z,97944.63
2017-12-27T16:51:12.212Z,97944.70
2017-12-27T16:53:37.994Z,97947.92
2017-12-27T16:56:03.771Z,97956.02
2017-12-27T16:58:29.551Z,97960.85
2017-12-27T17:00:55.362Z,97963.03
2017-12-27T17:03:21.147Z,97954.06
2017-12-27T17:05:46.940Z,97956.12
2017-12-27T17:08:12.738Z,97958.60
2017-12-27T17:10:38.538Z,97966.56
2017-12-27T17:13:04.319Z,97966.30
2017-12-27T17:15:30.462Z,97956.82
2017-12-27T17:17:56.252Z,97967.09
2017-12-27T17:20:22.040Z,97971.52
2017-12-27T17:22:47.882Z,97977.05
2017-12-27T17:25:13.676Z,97969.21
2017-12-27T17:27:39.459Z,97973.48
2017-12-27T17:30:05.275Z,97968.95
2017-12-27T17:32:31.047Z,97980.05
2017-12-27T17:34:56.818Z,97981.98
2017-12-27T17:37:22.634Z,97982.97
2017-12-27T17:39:48.426Z,97977.41
2017-12-27T17:42:14.203Z,97980.34
2017-12-27T17:44:40.022Z,97985.00
2017-12-27T17:47:05.807Z,97987.17
2017-12-27T17:49:31.641Z,97990.51
2017-12-27T17:51:57.450Z,97992.30
2017-12-27T17:54:23.256Z,97998.63
2017-12-27T17:56:49.050Z,98001.24
2017-12-27T17:59:15.112Z,97996.30
2017-12-27T18:01:40.926Z,97994.74
2017-12-27T18:04:06.711Z,98000.88
2017-12-27T18:06:32.554Z,98003.87
2017-12-27T18:08:58.342Z,97997.71
2017-12-27T18:11:24.110Z,98004.47
2017-12-27T18:13:49.907Z,97996.34
2017-12-27T18:16:15.696Z,97996.77
2017-12-27T18:18:41.476Z,98000.72
2017-12-27T18:21:07.295Z,97997.92
2017-12-27T18:23:33.085Z,97995.81
2017-12-27T18:25:58.866Z,97998.99
2017-12-27T18:28:24.672Z,98002.08
2017-12-27T18:30:50.459Z,98005.16
2017-12-27T18:33:16.749Z,97999.03
2017-12-27T18:35:42.564Z,97999.63
2017-12-27T18:38:08.348Z,97998.45
2017-12-27T18:40:34.154Z,98006.25
2017-12-27T18:42:59.960Z,98007.44
2017-12-27T18:45:27.007Z,98004.13
2017-12-27T18:47:52.806Z,98009.11
2017-12-27T18:50:18.658Z,97999.47
2017-12-27T18:52:44.450Z,98003.02
2017-12-27T18:55:10.278Z,98005.22
2017-12-27T18:57:36.111Z,97999.66
2017-12-27T19:00:02.076Z,98002.12
2017-12-27T19:02:27.902Z,98015.17
2017-12-27T19:04:53.722Z,98012.72
2017-12-27T19:07:19.551Z,98011.29
2017-12-27T19:09:45.379Z,97997.41
2017-12-27T19:12:11.248Z,97998.68
2017-12-27T19:14:37.196Z,98003.87
2017-12-27T19:17:03.009Z,98000.80
2017-12-27T19:19:28.800Z,98006.38
2017-12-27T19:21:54.602Z,98011.63
2017-12-27T19:24:20.387Z,98006.89
2017-12-27T19:26:46.186Z,98007.91
2017-12-27T19:29:12.162Z,98010.33
2017-12-27T19:31:37.958Z,98010.05
2017-12-27T19:34:03.763Z,98013.24
2017-12-27T19:36:29.572Z,98005.95
2017-12-27T19:38:55.359Z,98019.54
2017-12-27T19:41:21.219Z,98012.09
2017-12-27T19:43:47.420Z,98017.80
2017-12-27T19:46:13.242Z,98009.02
2017-12-27T19:48:39.023Z,98007.09
2017-12-27T19:51:04.847Z,98015.04
2017-12-27T19:53:30.641Z,98019.61
2017-12-27T19:55:56.484Z,98020.63
2017-12-27T19:58:22.298Z,98018.86
2017-12-27T20:00:48.419Z,98021.88
2017-12-27T20:03:14.250Z,98025.38
2017-12-27T20:05:40.774Z,98026.40
2017-12-27T20:08:06.569Z,98026.23
2017-12-27T20:10:32.436Z,98024.45
2017-12-27T20:12:58.231Z,98027.83
2017-12-27T20:15:24.039Z,98032.34
2017-12-27T20:17:49.839Z,98026.37
2017-12-27T20:20:15.684Z,98024.73
2017-12-27T20:22:41.554Z,98029.05
2017-12-27T20:25:07.367Z,98030.08
2017-12-27T20:27:33.154Z,98032.16
2017-12-27T20:29:58.976Z,98034.41
2017-12-27T20:32:24.767Z,98046.70
2017-12-27T20:34:50.556Z,98048.16
2017-12-27T20:37:16.784Z,98044.16
2017-12-27T20:39:42.593Z,98048.34
2017-12-27T20:42:09.734Z,98044.51
2017-12-27T20:44:35.592Z,98044.28
2017-12-27T20:47:01.495Z,98038.05
2017-12-27T20:49:27.280Z,98038.31
2017-12-27T20:51:53.202Z,98034.69
2017-12-27T20:54:19.023Z,98040.42
2017-12-27T20:56:44.895Z,98041.72
2017-12-27T20:59:10.705Z,98050.42
2017-12-27T21:01:36.542Z,98044.13
2017-12-27T21:04:02.352Z,98046.47
2017-12-27T21:06:29.092Z,98048.73
2017-12-27T21:08:54.909Z,98048.58
2017-12-27T21:11:21.178Z,98048.70
2017-12-27T21:13:46.983Z,98062.42
2017-12-27T21:16:12.791Z,98047.66
2017-12-27T21:18:38.853Z,98043.84
2017-12-27T21:21:04.657Z,98045.63
2017-12-27T21:23:30.504Z,98038.87
2017-12-27T21:25:56.325Z,98045.61
2017-12-27T21:28:22.300Z,98044.53
2017-12-27T21:30:48.114Z,98046.89
2017-12-27T21:33:13.915Z,98041.52
2017-12-27T21:35:40.104Z,98045.55
2017-12-27T21:38:05.976Z,98032.82
2017-12-27T21:40:31.816Z,98051.26
2017-12-27T21:42:57.841Z,98051.94
2017-12-27T21:45:23.646Z,98047.16
2017-12-27T21:47:55.583Z,98055.66
2017-12-27T21:50:21.606Z,98056.77
2017-12-27T21:52:47.450Z,98061.14
2017-12-27T21:55:14.445Z,98063.30
2017-12-27T21:57:41.475Z,98062.31
2017-12-27T22:00:13.429Z,98065.44
2017-12-27T22:02:39.414Z,98064.51
2017-12-27T22:05:07.494Z,98066.23
2017-12-27T22:07:33.353Z,98070.00
2017-12-27T22:09:59.173Z,98076.59
2017-12-27T22:12:25.027Z,98073.73
2017-12-27T22:14:51.108Z,98076.77
2017-12-27T22:17:16.914Z,98075.01
2017-12-27T22:19:42.743Z,98077.89
2017-12-27T22:22:08.539Z,98078.75
2017-12-27T22:24:34.658Z,98084.45
2017-12-27T22:27:00.458Z,98085.98
2017-12-27T22:29:26.296Z,98084.34
2017-12-27T22:31:52.156Z,98091.00
2017-12-27T22:34:17.988Z,98090.27
2017-12-27T22:36:44.808Z,98091.90
2017-12-27T22:39:10.636Z,98099.39
2017-12-27T22:41:36.424Z,98090.43
2017-12-27T22:44:02.252Z,98095.75
2017-12-27T22:46:29.154Z,98095.33
2017-12-27T22:48:54.953Z,98100.02
2017-12-27T22:51:20.759Z,98095.71
2017-12-27T22:53:47.573Z,98090.82
2017-12-27T22:56:13.434Z,98098.48
2017-12-27T22:58:39.877Z,98100.81
2017-12-27T23:01:05.679Z,98097.17
2017-12-27T23:03:31.604Z,98084.91
2017-12-27T23:05:57.516Z,98083.80
2017-12-27T23:08:23.313Z,98082.42
2017-12-27T23:10:49.202Z,98084.00
2017-12-27T23:13:15.017Z,98079.53
2017-12-27T23:15:41.181Z,98079.09
2017-12-27T23:18:06.975Z,98073.14
2017-12-27T23:20:33.010Z,98065.74
2017-12-27T23:22:58.822Z,98077.14
2017-12-27T23:25:24.604Z,98076.10
2017-12-27T23:27:50.421Z,98079.87
2017-12-27T23:30:16.256Z,98085.36
2017-12-27T23:32:42.345Z,98075.93
2017-12-27T23:35:08.147Z,98081.76
2017-12-27T23:37:34.211Z,98073.83
2017-12-27T23:40:00.018Z,98072.63
2017-12-27T23:42:25.830Z,98071.30
2017-12-27T23:44:51.627Z,98072.53
2017-12-27T23:47:17.470Z,98071.97
2017-12-27T23:49:44.976Z,98081.78
2017-12-27T23:52:10.774Z,98075.94
2017-12-27T23:54:36.573Z,98077.34
2017-12-27T23:57:03.183Z,98075.95
2017-12-27T23:59:28.983Z,98077.75
